sensor_id;sensor_type;location;lat;lon;timestamp;P1;durP1;ratioP1;P2;durP2;ratioP2
21681;SDS011;11002;48.256;10.084;2023-05-27T00:01:24;1.95;;;1.17;;
21681;SDS011;11002;48.256;10.084;2023-05-27T00:03:51;4.90;;;0.95;;
21681;SDS011;11002;48.256;10.084;2023-05-27T00:06:18;3.60;;;1.02;;
21681;SDS011;11002;48.256;10.084;2023-05-27T00:08:47;2.92;;;1.13;;
21681;SDS011;11002;48.256;10.084;2023-05-27T00:11:14;2.58;;;0.75;;
21681;SDS011;11002;48.256;10.084;2023-05-27T00:13:42;0.50;;;0.45;;
21681;SDS011;11002;48.256;10.084;2023-05-27T00:16:09;0.77;;;0.60;;
21681;SDS011;11002;48.256;10.084;2023-05-27T00:18:37;1.95;;;1.13;;
21681;SDS011;11002;48.256;10.084;2023-05-27T00:21:04;1.85;;;0.80;;
21681;SDS011;11002;48.256;10.084;2023-05-27T00:23:31;2.45;;;1.08;;
21681;SDS011;11002;48.256;10.084;2023-05-27T00:26:00;4.25;;;1.05;;
21681;SDS011;11002;48.256;10.084;2023-05-27T00:28:27;0.93;;;0.40;;
21681;SDS011;11002;48.256;10.084;2023-05-27T00:30:56;5.57;;;1.10;;
21681;SDS011;11002;48.256;10.084;2023-05-27T00:33:24;1.52;;;0.60;;
21681;SDS011;11002;48.256;10.084;2023-05-27T00:35:51;1.27;;;0.85;;
21681;SDS011;11002;48.256;10.084;2023-05-27T00:38:18;2.33;;;1.08;;
21681;SDS011;11002;48.256;10.084;2023-05-27T00:40:46;2.67;;;0.95;;
21681;SDS011;11002;48.256;10.084;2023-05-27T00:43:16;1.17;;;0.85;;
21681;SDS011;11002;48.256;10.084;2023-05-27T00:45:43;0.60;;;0.50;;
21681;SDS011;11002;48.256;10.084;2023-05-27T00:48:10;4.82;;;1.33;;
21681;SDS011;11002;48.256;10.084;2023-05-27T00:50:38;0.80;;;0.80;;
21681;SDS011;11002;48.256;10.084;2023-05-27T00:53:05;0.60;;;0.60;;
21681;SDS011;11002;48.256;10.084;2023-05-27T00:55:32;0.85;;;0.70;;
21681;SDS011;11002;48.256;10.084;2023-05-27T00:58:00;1.50;;;0.98;;
21681;SDS011;11002;48.256;10.084;2023-05-27T01:00:31;1.25;;;1.13;;
21681;SDS011;11002;48.256;10.084;2023-05-27T01:02:58;0.68;;;0.38;;
21681;SDS011;11002;48.256;10.084;2023-05-27T01:05:25;4.28;;;1.65;;
21681;SDS011;11002;48.256;10.084;2023-05-27T01:07:59;2.63;;;0.85;;
21681;SDS011;11002;48.256;10.084;2023-05-27T01:10:33;0.93;;;0.93;;
21681;SDS011;11002;48.256;10.084;2023-05-27T01:13:11;1.08;;;0.73;;
21681;SDS011;11002;48.256;10.084;2023-05-27T01:15:45;4.35;;;1.08;;
21681;SDS011;11002;48.256;10.084;2023-05-27T01:18:14;9.02;;;1.10;;
21681;SDS011;11002;48.256;10.084;2023-05-27T01:20:44;5.68;;;0.57;;
21681;SDS011;11002;48.256;10.084;2023-05-27T01:23:16;2.95;;;1.30;;
21681;SDS011;11002;48.256;10.084;2023-05-27T01:25:44;1.65;;;1.23;;
21681;SDS011;11002;48.256;10.084;2023-05-27T01:28:11;2.88;;;1.27;;
21681;SDS011;11002;48.256;10.084;2023-05-27T01:30:38;2.30;;;1.77;;
21681;SDS011;11002;48.256;10.084;2023-05-27T01:33:07;0.88;;;0.73;;
21681;SDS011;11002;48.256;10.084;2023-05-27T01:35:37;1.88;;;1.15;;
21681;SDS011;11002;48.256;10.084;2023-05-27T01:38:09;2.17;;;1.48;;
21681;SDS011;11002;48.256;10.084;2023-05-27T01:40:40;0.82;;;0.65;;
21681;SDS011;11002;48.256;10.084;2023-05-27T01:43:08;2.15;;;0.93;;
21681;SDS011;11002;48.256;10.084;2023-05-27T01:45:38;0.98;;;0.70;;
21681;SDS011;11002;48.256;10.084;2023-05-27T01:48:07;0.77;;;0.73;;
21681;SDS011;11002;48.256;10.084;2023-05-27T01:50:35;3.83;;;1.23;;
21681;SDS011;11002;48.256;10.084;2023-05-27T01:53:02;0.63;;;0.63;;
21681;SDS011;11002;48.256;10.084;2023-05-27T01:55:30;1.02;;;0.55;;
21681;SDS011;11002;48.256;10.084;2023-05-27T01:57:59;0.38;;;0.38;;
21681;SDS011;11002;48.256;10.084;2023-05-27T02:00:26;0.60;;;0.60;;
21681;SDS011;11002;48.256;10.084;2023-05-27T02:02:53;0.70;;;0.70;;
21681;SDS011;11002;48.256;10.084;2023-05-27T02:05:22;6.95;;;1.02;;
21681;SDS011;11002;48.256;10.084;2023-05-27T02:07:49;1.27;;;1.17;;
21681;SDS011;11002;48.256;10.084;2023-05-27T02:10:17;3.83;;;1.33;;
21681;SDS011;11002;48.256;10.084;2023-05-27T02:12:46;0.55;;;0.55;;
21681;SDS011;11002;48.256;10.084;2023-05-27T02:15:16;1.55;;;0.70;;
21681;SDS011;11002;48.256;10.084;2023-05-27T02:17:43;2.95;;;0.98;;
21681;SDS011;11002;48.256;10.084;2023-05-27T02:20:12;2.45;;;0.52;;
21681;SDS011;11002;48.256;10.084;2023-05-27T02:22:40;3.03;;;1.38;;
21681;SDS011;11002;48.256;10.084;2023-05-27T02:25:08;3.30;;;0.80;;
21681;SDS011;11002;48.256;10.084;2023-05-27T02:27:37;4.53;;;1.75;;
21681;SDS011;11002;48.256;10.084;2023-05-27T02:30:07;2.88;;;1.00;;
21681;SDS011;11002;48.256;10.084;2023-05-27T02:32:37;6.30;;;1.30;;
21681;SDS011;11002;48.256;10.084;2023-05-27T02:35:04;1.67;;;0.88;;
21681;SDS011;11002;48.256;10.084;2023-05-27T02:37:32;1.35;;;0.82;;
21681;SDS011;11002;48.256;10.084;2023-05-27T02:40:00;2.60;;;0.98;;
21681;SDS011;11002;48.256;10.084;2023-05-27T02:42:28;2.95;;;0.98;;
21681;SDS011;11002;48.256;10.084;2023-05-27T02:44:55;3.13;;;0.90;;
21681;SDS011;11002;48.256;10.084;2023-05-27T02:47:22;1.00;;;0.70;;
21681;SDS011;11002;48.256;10.084;2023-05-27T02:49:51;1.92;;;0.82;;
21681;SDS011;11002;48.256;10.084;2023-05-27T02:52:18;1.05;;;0.82;;
21681;SDS011;11002;48.256;10.084;2023-05-27T02:54:46;5.00;;;0.88;;
21681;SDS011;11002;48.256;10.084;2023-05-27T02:57:13;1.55;;;1.38;;
21681;SDS011;11002;48.256;10.084;2023-05-27T02:59:40;1.25;;;0.75;;
21681;SDS011;11002;48.256;10.084;2023-05-27T03:02:07;0.88;;;0.57;;
21681;SDS011;11002;48.256;10.084;2023-05-27T03:04:35;0.73;;;0.60;;
21681;SDS011;11002;48.256;10.084;2023-05-27T03:07:04;1.15;;;0.50;;
21681;SDS011;11002;48.256;10.084;2023-05-27T03:09:31;2.78;;;0.70;;
21681;SDS011;11002;48.256;10.084;2023-05-27T03:11:58;2.90;;;0.82;;
21681;SDS011;11002;48.256;10.084;2023-05-27T03:14:26;0.98;;;0.45;;
21681;SDS011;11002;48.256;10.084;2023-05-27T03:16:53;3.45;;;0.70;;
21681;SDS011;11002;48.256;10.084;2023-05-27T03:19:21;1.20;;;0.50;;
21681;SDS011;11002;48.256;10.084;2023-05-27T03:21:49;2.22;;;1.05;;
21681;SDS011;11002;48.256;10.084;2023-05-27T03:24:18;1.67;;;0.93;;
21681;SDS011;11002;48.256;10.084;2023-05-27T03:26:45;1.80;;;0.98;;
21681;SDS011;11002;48.256;10.084;2023-05-27T03:29:13;1.15;;;0.65;;
21681;SDS011;11002;48.256;10.084;2023-05-27T03:31:41;1.13;;;0.82;;
21681;SDS011;11002;48.256;10.084;2023-05-27T03:34:12;1.23;;;1.10;;
21681;SDS011;11002;48.256;10.084;2023-05-27T03:36:40;1.30;;;0.82;;
21681;SDS011;11002;48.256;10.084;2023-05-27T03:39:12;3.40;;;1.00;;
21681;SDS011;11002;48.256;10.084;2023-05-27T03:41:47;7.28;;;1.65;;
21681;SDS011;11002;48.256;10.084;2023-05-27T03:44:14;1.02;;;0.93;;
21681;SDS011;11002;48.256;10.084;2023-05-27T03:46:41;5.47;;;1.73;;
21681;SDS011;11002;48.256;10.084;2023-05-27T03:49:09;1.15;;;0.80;;
21681;SDS011;11002;48.256;10.084;2023-05-27T03:51:36;0.95;;;0.93;;
21681;SDS011;11002;48.256;10.084;2023-05-27T03:54:04;2.03;;;1.38;;
21681;SDS011;11002;48.256;10.084;2023-05-27T03:56:31;4.05;;;1.48;;
21681;SDS011;11002;48.256;10.084;2023-05-27T03:59:00;0.70;;;0.60;;
21681;SDS011;11002;48.256;10.084;2023-05-27T04:01:28;5.55;;;0.70;;
21681;SDS011;11002;48.256;10.084;2023-05-27T04:03:55;16.38;;;1.25;;
21681;SDS011;11002;48.256;10.084;2023-05-27T04:06:23;0.90;;;0.60;;
21681;SDS011;11002;48.256;10.084;2023-05-27T04:08:51;1.27;;;0.50;;
21681;SDS011;11002;48.256;10.084;2023-05-27T04:11:18;1.60;;;0.55;;
21681;SDS011;11002;48.256;10.084;2023-05-27T04:13:46;2.00;;;1.40;;
21681;SDS011;11002;48.256;10.084;2023-05-27T04:16:15;3.15;;;0.88;;
21681;SDS011;11002;48.256;10.084;2023-05-27T04:18:42;0.73;;;0.60;;
21681;SDS011;11002;48.256;10.084;2023-05-27T04:21:14;1.70;;;0.80;;
21681;SDS011;11002;48.256;10.084;2023-05-27T04:23:41;1.58;;;0.70;;
21681;SDS011;11002;48.256;10.084;2023-05-27T04:26:09;1.77;;;0.82;;
21681;SDS011;11002;48.256;10.084;2023-05-27T04:28:40;2.90;;;1.23;;
21681;SDS011;11002;48.256;10.084;2023-05-27T04:31:10;3.50;;;1.05;;
21681;SDS011;11002;48.256;10.084;2023-05-27T04:33:44;1.10;;;0.73;;
21681;SDS011;11002;48.256;10.084;2023-05-27T04:36:13;0.85;;;0.77;;
21681;SDS011;11002;48.256;10.084;2023-05-27T04:39:01;2.78;;;0.77;;
21681;SDS011;11002;48.256;10.084;2023-05-27T04:41:31;1.80;;;0.77;;
21681;SDS011;11002;48.256;10.084;2023-05-27T04:44:05;2.20;;;0.88;;
21681;SDS011;11002;48.256;10.084;2023-05-27T04:46:37;3.63;;;1.02;;
21681;SDS011;11002;48.256;10.084;2023-05-27T04:49:07;0.77;;;0.50;;
21681;SDS011;11002;48.256;10.084;2023-05-27T04:51:35;0.88;;;0.63;;
21681;SDS011;11002;48.256;10.084;2023-05-27T04:54:03;2.63;;;1.02;;
21681;SDS011;11002;48.256;10.084;2023-05-27T04:56:33;2.50;;;1.23;;
21681;SDS011;11002;48.256;10.084;2023-05-27T04:59:01;1.25;;;0.88;;
21681;SDS011;11002;48.256;10.084;2023-05-27T05:01:32;2.58;;;1.98;;
21681;SDS011;11002;48.256;10.084;2023-05-27T05:04:21;4.13;;;1.00;;
21681;SDS011;11002;48.256;10.084;2023-05-27T05:07:01;2.63;;;1.02;;
21681;SDS011;11002;48.256;10.084;2023-05-27T05:09:30;3.40;;;0.63;;
21681;SDS011;11002;48.256;10.084;2023-05-27T05:12:11;3.00;;;0.60;;
21681;SDS011;11002;48.256;10.084;2023-05-27T05:14:42;1.88;;;1.05;;
21681;SDS011;11002;48.256;10.084;2023-05-27T05:17:09;2.92;;;0.70;;
21681;SDS011;11002;48.256;10.084;2023-05-27T05:19:38;0.70;;;0.60;;
21681;SDS011;11002;48.256;10.084;2023-05-27T05:22:06;5.05;;;1.58;;
21681;SDS011;11002;48.256;10.084;2023-05-27T05:24:34;2.90;;;1.52;;
21681;SDS011;11002;48.256;10.084;2023-05-27T05:27:01;6.80;;;1.38;;
21681;SDS011;11002;48.256;10.084;2023-05-27T05:29:29;4.65;;;1.48;;
21681;SDS011;11002;48.256;10.084;2023-05-27T05:31:57;4.75;;;1.02;;
21681;SDS011;11002;48.256;10.084;2023-05-27T05:34:25;1.42;;;0.82;;
21681;SDS011;11002;48.256;10.084;2023-05-27T05:36:54;5.22;;;0.95;;
21681;SDS011;11002;48.256;10.084;2023-05-27T05:39:22;8.38;;;1.10;;
21681;SDS011;11002;48.256;10.084;2023-05-27T05:41:52;0.60;;;0.60;;
21681;SDS011;11002;48.256;10.084;2023-05-27T05:44:21;3.88;;;1.00;;
21681;SDS011;11002;48.256;10.084;2023-05-27T05:46:51;2.70;;;0.63;;
21681;SDS011;11002;48.256;10.084;2023-05-27T05:49:21;0.68;;;0.63;;
21681;SDS011;11002;48.256;10.084;2023-05-27T05:51:49;4.28;;;1.33;;
21681;SDS011;11002;48.256;10.084;2023-05-27T05:54:18;1.30;;;0.80;;
21681;SDS011;11002;48.256;10.084;2023-05-27T05:56:50;3.03;;;1.40;;
21681;SDS011;11002;48.256;10.084;2023-05-27T05:59:18;7.25;;;1.58;;
21681;SDS011;11002;48.256;10.084;2023-05-27T06:01:45;1.27;;;0.63;;
21681;SDS011;11002;48.256;10.084;2023-05-27T06:04:13;4.95;;;0.80;;
21681;SDS011;11002;48.256;10.084;2023-05-27T06:06:43;3.03;;;1.10;;
21681;SDS011;11002;48.256;10.084;2023-05-27T06:09:30;2.22;;;1.30;;
21681;SDS011;11002;48.256;10.084;2023-05-27T06:12:01;1.73;;;0.95;;
21681;SDS011;11002;48.256;10.084;2023-05-27T06:14:36;5.35;;;1.70;;
21681;SDS011;11002;48.256;10.084;2023-05-27T06:17:04;3.17;;;0.73;;
21681;SDS011;11002;48.256;10.084;2023-05-27T06:19:31;3.58;;;1.42;;
21681;SDS011;11002;48.256;10.084;2023-05-27T06:21:59;3.00;;;1.30;;
21681;SDS011;11002;48.256;10.084;2023-05-27T06:27:45;1.77;;;1.38;;
21681;SDS011;11002;48.256;10.084;2023-05-27T06:30:12;2.92;;;0.95;;
21681;SDS011;11002;48.256;10.084;2023-05-27T06:32:43;8.18;;;1.90;;
21681;SDS011;11002;48.256;10.084;2023-05-27T06:35:11;4.68;;;2.00;;
21681;SDS011;11002;48.256;10.084;2023-05-27T06:37:38;2.13;;;1.38;;
21681;SDS011;11002;48.256;10.084;2023-05-27T06:40:07;14.65;;;2.05;;
21681;SDS011;11002;48.256;10.084;2023-05-27T06:42:36;2.63;;;1.67;;
21681;SDS011;11002;48.256;10.084;2023-05-27T06:45:23;3.90;;;1.05;;
21681;SDS011;11002;48.256;10.084;2023-05-27T06:48:00;4.25;;;1.85;;
21681;SDS011;11002;48.256;10.084;2023-05-27T06:50:28;8.40;;;2.03;;
21681;SDS011;11002;48.256;10.084;2023-05-27T06:52:55;4.30;;;2.00;;
21681;SDS011;11002;48.256;10.084;2023-05-27T06:55:53;3.22;;;2.03;;
21681;SDS011;11002;48.256;10.084;2023-05-27T06:58:40;3.67;;;1.80;;
21681;SDS011;11002;48.256;10.084;2023-05-27T07:01:12;11.35;;;2.10;;
21681;SDS011;11002;48.256;10.084;2023-05-27T07:03:45;14.35;;;2.90;;
21681;SDS011;11002;48.256;10.084;2023-05-27T07:06:17;7.70;;;2.38;;
21681;SDS011;11002;48.256;10.084;2023-05-27T07:08:48;4.45;;;2.30;;
21681;SDS011;11002;48.256;10.084;2023-05-27T07:11:32;7.20;;;2.60;;
21681;SDS011;11002;48.256;10.084;2023-05-27T07:14:04;4.68;;;2.72;;
21681;SDS011;11002;48.256;10.084;2023-05-27T07:16:32;5.80;;;2.25;;
21681;SDS011;11002;48.256;10.084;2023-05-27T07:19:01;6.97;;;2.67;;
21681;SDS011;11002;48.256;10.084;2023-05-27T07:21:32;4.88;;;2.55;;
21681;SDS011;11002;48.256;10.084;2023-05-27T07:24:02;3.15;;;1.67;;
21681;SDS011;11002;48.256;10.084;2023-05-27T07:26:35;6.97;;;2.25;;
21681;SDS011;11002;48.256;10.084;2023-05-27T07:29:03;6.47;;;2.45;;
21681;SDS011;11002;48.256;10.084;2023-05-27T07:31:50;5.82;;;2.25;;
21681;SDS011;11002;48.256;10.084;2023-05-27T07:34:20;6.03;;;2.90;;
21681;SDS011;11002;48.256;10.084;2023-05-27T07:36:47;8.90;;;2.22;;
21681;SDS011;11002;48.256;10.084;2023-05-27T07:39:15;5.72;;;2.28;;
21681;SDS011;11002;48.256;10.084;2023-05-27T07:41:43;5.57;;;2.25;;
21681;SDS011;11002;48.256;10.084;2023-05-27T07:44:11;5.63;;;2.72;;
21681;SDS011;11002;48.256;10.084;2023-05-27T07:46:38;7.90;;;2.53;;
21681;SDS011;11002;48.256;10.084;2023-05-27T07:49:05;3.83;;;2.25;;
21681;SDS011;11002;48.256;10.084;2023-05-27T07:51:39;6.63;;;2.38;;
21681;SDS011;11002;48.256;10.084;2023-05-27T07:54:09;6.80;;;2.58;;
21681;SDS011;11002;48.256;10.084;2023-05-27T07:56:37;3.85;;;2.03;;
21681;SDS011;11002;48.256;10.084;2023-05-27T07:59:05;10.23;;;2.78;;
21681;SDS011;11002;48.256;10.084;2023-05-27T08:01:33;4.88;;;2.15;;
21681;SDS011;11002;48.256;10.084;2023-05-27T08:04:01;4.47;;;2.47;;
21681;SDS011;11002;48.256;10.084;2023-05-27T08:07:00;4.22;;;2.38;;
21681;SDS011;11002;48.256;10.084;2023-05-27T08:09:46;4.63;;;2.40;;
21681;SDS011;11002;48.256;10.084;2023-05-27T08:12:25;2.80;;;2.10;;
21681;SDS011;11002;48.256;10.084;2023-05-27T08:15:12;48.70;;;3.42;;
21681;SDS011;11002;48.256;10.084;2023-05-27T08:17:45;30.67;;;3.45;;
21681;SDS011;11002;48.256;10.084;2023-05-27T08:20:26;6.00;;;2.97;;
21681;SDS011;11002;48.256;10.084;2023-05-27T08:23:19;3.65;;;2.28;;
21681;SDS011;11002;48.256;10.084;2023-05-27T08:25:54;3.33;;;2.28;;
21681;SDS011;11002;48.256;10.084;2023-05-27T08:28:40;5.30;;;2.58;;
21681;SDS011;11002;48.256;10.084;2023-05-27T08:31:28;6.43;;;2.70;;
21681;SDS011;11002;48.256;10.084;2023-05-27T08:33:58;5.10;;;2.60;;
21681;SDS011;11002;48.256;10.084;2023-05-27T08:36:26;4.55;;;2.38;;
21681;SDS011;11002;48.256;10.084;2023-05-27T08:38:55;6.82;;;2.67;;
21681;SDS011;11002;48.256;10.084;2023-05-27T08:41:27;5.72;;;2.75;;
21681;SDS011;11002;48.256;10.084;2023-05-27T08:43:56;5.97;;;3.15;;
21681;SDS011;11002;48.256;10.084;2023-05-27T08:46:23;6.38;;;2.50;;
21681;SDS011;11002;48.256;10.084;2023-05-27T08:48:54;7.35;;;2.67;;
21681;SDS011;11002;48.256;10.084;2023-05-27T08:51:22;5.28;;;2.50;;
21681;SDS011;11002;48.256;10.084;2023-05-27T08:53:50;6.88;;;2.72;;
21681;SDS011;11002;48.256;10.084;2023-05-27T08:56:18;5.70;;;2.38;;
21681;SDS011;11002;48.256;10.084;2023-05-27T08:58:47;8.13;;;2.80;;
21681;SDS011;11002;48.256;10.084;2023-05-27T09:01:16;5.80;;;2.67;;
21681;SDS011;11002;48.256;10.084;2023-05-27T09:03:45;8.27;;;3.08;;
21681;SDS011;11002;48.256;10.084;2023-05-27T09:06:15;3.47;;;2.10;;
21681;SDS011;11002;48.256;10.084;2023-05-27T09:08:42;7.80;;;2.75;;
21681;SDS011;11002;48.256;10.084;2023-05-27T09:11:18;7.15;;;2.55;;
21681;SDS011;11002;48.256;10.084;2023-05-27T09:13:47;4.47;;;2.83;;
21681;SDS011;11002;48.256;10.084;2023-05-27T09:16:14;5.60;;;2.60;;
21681;SDS011;11002;48.256;10.084;2023-05-27T09:18:47;5.88;;;2.65;;
21681;SDS011;11002;48.256;10.084;2023-05-27T09:21:16;7.80;;;2.78;;
21681;SDS011;11002;48.256;10.084;2023-05-27T09:23:43;5.78;;;2.38;;
21681;SDS011;11002;48.256;10.084;2023-05-27T09:26:11;6.18;;;2.45;;
21681;SDS011;11002;48.256;10.084;2023-05-27T09:28:38;5.03;;;2.03;;
21681;SDS011;11002;48.256;10.084;2023-05-27T09:31:06;5.13;;;2.60;;
21681;SDS011;11002;48.256;10.084;2023-05-27T09:33:35;4.97;;;2.65;;
21681;SDS011;11002;48.256;10.084;2023-05-27T09:36:04;4.45;;;2.45;;
21681;SDS011;11002;48.256;10.084;2023-05-27T09:38:34;5.72;;;2.70;;
21681;SDS011;11002;48.256;10.084;2023-05-27T09:41:02;5.15;;;2.85;;
21681;SDS011;11002;48.256;10.084;2023-05-27T09:43:29;5.40;;;2.35;;
21681;SDS011;11002;48.256;10.084;2023-05-27T09:45:58;9.52;;;3.40;;
21681;SDS011;11002;48.256;10.084;2023-05-27T09:48:27;3.35;;;2.05;;
21681;SDS011;11002;48.256;10.084;2023-05-27T09:50:57;5.72;;;2.55;;
21681;SDS011;11002;48.256;10.084;2023-05-27T09:53:25;2.83;;;2.13;;
21681;SDS011;11002;48.256;10.084;2023-05-27T09:55:55;4.32;;;2.22;;
21681;SDS011;11002;48.256;10.084;2023-05-27T09:58:24;3.72;;;2.58;;
21681;SDS011;11002;48.256;10.084;2023-05-27T10:00:51;4.97;;;2.67;;
21681;SDS011;11002;48.256;10.084;2023-05-27T10:03:22;6.10;;;2.55;;
21681;SDS011;11002;48.256;10.084;2023-05-27T10:05:50;6.30;;;2.40;;
21681;SDS011;11002;48.256;10.084;2023-05-27T10:08:18;5.88;;;2.20;;
21681;SDS011;11002;48.256;10.084;2023-05-27T10:10:46;6.22;;;2.17;;
21681;SDS011;11002;48.256;10.084;2023-05-27T10:13:15;6.63;;;2.72;;
21681;SDS011;11002;48.256;10.084;2023-05-27T10:15:46;4.75;;;2.28;;
21681;SDS011;11002;48.256;10.084;2023-05-27T10:18:21;4.03;;;2.58;;
21681;SDS011;11002;48.256;10.084;2023-05-27T10:20:50;3.60;;;2.63;;
21681;SDS011;11002;48.256;10.084;2023-05-27T10:23:19;3.17;;;2.42;;
21681;SDS011;11002;48.256;10.084;2023-05-27T10:25:51;3.45;;;2.28;;
21681;SDS011;11002;48.256;10.084;2023-05-27T10:28:29;6.78;;;2.63;;
21681;SDS011;11002;48.256;10.084;2023-05-27T10:31:04;3.45;;;2.60;;
21681;SDS011;11002;48.256;10.084;2023-05-27T10:33:34;6.25;;;2.25;;
21681;SDS011;11002;48.256;10.084;2023-05-27T10:36:08;4.40;;;2.58;;
21681;SDS011;11002;48.256;10.084;2023-05-27T10:38:36;5.30;;;2.42;;
21681;SDS011;11002;48.256;10.084;2023-05-27T10:41:06;4.38;;;2.33;;
21681;SDS011;11002;48.256;10.084;2023-05-27T10:43:35;3.72;;;2.30;;
21681;SDS011;11002;48.256;10.084;2023-05-27T10:46:03;5.88;;;2.58;;
21681;SDS011;11002;48.256;10.084;2023-05-27T10:48:33;4.43;;;2.70;;
21681;SDS011;11002;48.256;10.084;2023-05-27T10:51:02;4.43;;;2.33;;
21681;SDS011;11002;48.256;10.084;2023-05-27T10:53:29;7.97;;;2.85;;
21681;SDS011;11002;48.256;10.084;2023-05-27T10:55:58;4.45;;;2.58;;
21681;SDS011;11002;48.256;10.084;2023-05-27T10:58:26;5.15;;;2.45;;
21681;SDS011;11002;48.256;10.084;2023-05-27T11:00:55;4.80;;;2.60;;
21681;SDS011;11002;48.256;10.084;2023-05-27T11:03:23;4.22;;;2.13;;
21681;SDS011;11002;48.256;10.084;2023-05-27T11:05:59;6.63;;;2.60;;
21681;SDS011;11002;48.256;10.084;2023-05-27T11:08:28;3.92;;;2.47;;
21681;SDS011;11002;48.256;10.084;2023-05-27T11:10:58;6.55;;;2.53;;
21681;SDS011;11002;48.256;10.084;2023-05-27T11:13:33;5.05;;;2.63;;
21681;SDS011;11002;48.256;10.084;2023-05-27T11:16:04;3.35;;;2.45;;
21681;SDS011;11002;48.256;10.084;2023-05-27T11:18:36;6.10;;;2.50;;
21681;SDS011;11002;48.256;10.084;2023-05-27T11:21:03;3.72;;;2.78;;
21681;SDS011;11002;48.256;10.084;2023-05-27T11:23:35;7.65;;;2.83;;
21681;SDS011;11002;48.256;10.084;2023-05-27T11:26:10;4.72;;;2.83;;
21681;SDS011;11002;48.256;10.084;2023-05-27T11:28:44;5.45;;;2.83;;
21681;SDS011;11002;48.256;10.084;2023-05-27T11:31:13;5.65;;;2.90;;
21681;SDS011;11002;48.256;10.084;2023-05-27T11:33:41;5.28;;;2.88;;
21681;SDS011;11002;48.256;10.084;2023-05-27T11:36:11;4.22;;;2.38;;
21681;SDS011;11002;48.256;10.084;2023-05-27T11:38:47;4.15;;;2.85;;
21681;SDS011;11002;48.256;10.084;2023-05-27T11:41:16;7.28;;;2.92;;
21681;SDS011;11002;48.256;10.084;2023-05-27T11:43:50;6.00;;;2.05;;
21681;SDS011;11002;48.256;10.084;2023-05-27T11:46:20;6.80;;;2.75;;
21681;SDS011;11002;48.256;10.084;2023-05-27T11:48:48;5.28;;;2.33;;
21681;SDS011;11002;48.256;10.084;2023-05-27T11:51:16;7.60;;;2.70;;
21681;SDS011;11002;48.256;10.084;2023-05-27T11:53:46;5.80;;;3.17;;
21681;SDS011;11002;48.256;10.084;2023-05-27T11:56:13;4.53;;;2.80;;
21681;SDS011;11002;48.256;10.084;2023-05-27T11:58:41;7.32;;;2.42;;
21681;SDS011;11002;48.256;10.084;2023-05-27T12:01:08;3.83;;;2.47;;
21681;SDS011;11002;48.256;10.084;2023-05-27T12:03:37;5.78;;;2.78;;
21681;SDS011;11002;48.256;10.084;2023-05-27T12:06:04;8.68;;;3.08;;
21681;SDS011;11002;48.256;10.084;2023-05-27T12:08:32;6.22;;;2.33;;
21681;SDS011;11002;48.256;10.084;2023-05-27T12:11:00;5.22;;;2.70;;
21681;SDS011;11002;48.256;10.084;2023-05-27T12:13:28;4.22;;;2.53;;
21681;SDS011;11002;48.256;10.084;2023-05-27T12:15:57;3.80;;;2.67;;
21681;SDS011;11002;48.256;10.084;2023-05-27T12:18:24;4.32;;;2.53;;
21681;SDS011;11002;48.256;10.084;2023-05-27T12:20:53;6.30;;;3.05;;
21681;SDS011;11002;48.256;10.084;2023-05-27T12:23:20;4.97;;;2.40;;
21681;SDS011;11002;48.256;10.084;2023-05-27T12:25:48;5.60;;;2.85;;
21681;SDS011;11002;48.256;10.084;2023-05-27T12:28:15;5.28;;;2.80;;
21681;SDS011;11002;48.256;10.084;2023-05-27T12:30:42;4.45;;;2.28;;
21681;SDS011;11002;48.256;10.084;2023-05-27T12:33:09;4.90;;;2.70;;
21681;SDS011;11002;48.256;10.084;2023-05-27T12:35:37;8.68;;;2.83;;
21681;SDS011;11002;48.256;10.084;2023-05-27T12:38:06;5.20;;;2.50;;
21681;SDS011;11002;48.256;10.084;2023-05-27T12:40:33;5.22;;;2.70;;
21681;SDS011;11002;48.256;10.084;2023-05-27T12:43:01;7.70;;;3.08;;
21681;SDS011;11002;48.256;10.084;2023-05-27T12:45:29;4.07;;;2.67;;
21681;SDS011;11002;48.256;10.084;2023-05-27T12:47:57;7.47;;;2.53;;
21681;SDS011;11002;48.256;10.084;2023-05-27T12:50:24;7.20;;;2.88;;
21681;SDS011;11002;48.256;10.084;2023-05-27T12:52:52;7.13;;;2.83;;
21681;SDS011;11002;48.256;10.084;2023-05-27T12:55:21;3.97;;;2.60;;
21681;SDS011;11002;48.256;10.084;2023-05-27T12:57:50;8.52;;;3.03;;
21681;SDS011;11002;48.256;10.084;2023-05-27T13:00:19;4.85;;;2.90;;
21681;SDS011;11002;48.256;10.084;2023-05-27T13:02:47;4.95;;;3.00;;
21681;SDS011;11002;48.256;10.084;2023-05-27T13:05:16;5.43;;;3.25;;
21681;SDS011;11002;48.256;10.084;2023-05-27T13:07:53;3.45;;;2.30;;
21681;SDS011;11002;48.256;10.084;2023-05-27T13:10:23;6.57;;;2.90;;
21681;SDS011;11002;48.256;10.084;2023-05-27T13:12:50;6.70;;;2.90;;
21681;SDS011;11002;48.256;10.084;2023-05-27T13:15:19;9.45;;;3.17;;
21681;SDS011;11002;48.256;10.084;2023-05-27T13:17:47;6.75;;;2.90;;
21681;SDS011;11002;48.256;10.084;2023-05-27T13:20:15;5.05;;;2.45;;
21681;SDS011;11002;48.256;10.084;2023-05-27T13:22:44;7.55;;;2.60;;
21681;SDS011;11002;48.256;10.084;2023-05-27T13:25:11;5.70;;;3.10;;
21681;SDS011;11002;48.256;10.084;2023-05-27T13:27:40;5.07;;;2.70;;
21681;SDS011;11002;48.256;10.084;2023-05-27T13:30:10;5.65;;;2.80;;
21681;SDS011;11002;48.256;10.084;2023-05-27T13:32:38;3.88;;;2.58;;
21681;SDS011;11002;48.256;10.084;2023-05-27T13:35:06;6.97;;;3.05;;
21681;SDS011;11002;48.256;10.084;2023-05-27T13:37:34;5.78;;;2.65;;
21681;SDS011;11002;48.256;10.084;2023-05-27T13:40:01;6.43;;;2.75;;
21681;SDS011;11002;48.256;10.084;2023-05-27T13:42:29;6.15;;;2.67;;
21681;SDS011;11002;48.256;10.084;2023-05-27T13:44:57;3.55;;;2.33;;
21681;SDS011;11002;48.256;10.084;2023-05-27T13:47:25;5.43;;;2.78;;
21681;SDS011;11002;48.256;10.084;2023-05-27T13:49:52;6.35;;;2.47;;
21681;SDS011;11002;48.256;10.084;2023-05-27T13:52:19;5.75;;;2.70;;
21681;SDS011;11002;48.256;10.084;2023-05-27T13:54:47;3.33;;;2.25;;
21681;SDS011;11002;48.256;10.084;2023-05-27T13:57:14;5.70;;;2.50;;
21681;SDS011;11002;48.256;10.084;2023-05-27T13:59:41;6.25;;;2.60;;
21681;SDS011;11002;48.256;10.084;2023-05-27T14:02:10;6.70;;;2.55;;
21681;SDS011;11002;48.256;10.084;2023-05-27T14:04:37;4.75;;;2.20;;
21681;SDS011;11002;48.256;10.084;2023-05-27T14:07:05;2.90;;;1.70;;
21681;SDS011;11002;48.256;10.084;2023-05-27T14:09:32;2.08;;;1.45;;
21681;SDS011;11002;48.256;10.084;2023-05-27T14:11:59;2.13;;;1.20;;
21681;SDS011;11002;48.256;10.084;2023-05-27T14:14:27;3.72;;;1.20;;
21681;SDS011;11002;48.256;10.084;2023-05-27T14:16:55;2.33;;;1.50;;
21681;SDS011;11002;48.256;10.084;2023-05-27T14:19:23;1.52;;;1.25;;
21681;SDS011;11002;48.256;10.084;2023-05-27T14:21:51;3.40;;;1.80;;
21681;SDS011;11002;48.256;10.084;2023-05-27T14:24:18;6.93;;;1.60;;
21681;SDS011;11002;48.256;10.084;2023-05-27T14:26:46;2.90;;;1.50;;
21681;SDS011;11002;48.256;10.084;2023-05-27T14:29:13;3.30;;;1.65;;
21681;SDS011;11002;48.256;10.084;2023-05-27T14:31:40;3.55;;;1.75;;
21681;SDS011;11002;48.256;10.084;2023-05-27T14:34:08;1.75;;;1.45;;
21681;SDS011;11002;48.256;10.084;2023-05-27T14:36:37;1.42;;;1.20;;
21681;SDS011;11002;48.256;10.084;2023-05-27T14:39:04;6.18;;;1.67;;
21681;SDS011;11002;48.256;10.084;2023-05-27T14:41:32;2.25;;;1.13;;
21681;SDS011;11002;48.256;10.084;2023-05-27T14:43:59;2.85;;;1.50;;
21681;SDS011;11002;48.256;10.084;2023-05-27T14:46:26;1.98;;;0.98;;
21681;SDS011;11002;48.256;10.084;2023-05-27T14:48:54;1.88;;;1.02;;
21681;SDS011;11002;48.256;10.084;2023-05-27T14:51:21;4.47;;;1.70;;